Terminal Aerodrome Forecast
Issued by NWS

Home | Current Version | Previous Version | Text Only | Print | Product List | Glossary On
Versions: 1 2 3 4 5 6 7 8 9 10 11 12 13 14 15
649
FTPA31 PHFO 231747
TAFHMK
TAF
PHMK 231747Z 2318/2418 VRB05KT P6SM SCT100
     FM232100 17011KT P6SM VCSH SCT020 BKN045
     FM240200 19010KT P6SM VCTS BKN030CB BKN045
     FM240800 21011KT P6SM VCTS SCT025CB BKN045
     FM241600 32010G18KT P6SM VCSH SCT025 BKN045=

USA.gov is the U.S. government's official web portal to all federal, state and local government web resources and services.